Time;durP1;ratioP1;P1;durP2;ratioP2;P2;SDS_P1;SDS_P2;PMS_P1;PMS_P2;Temp;Humidity;BMP_temperature;BMP_pressure;BME280_temperature;BME280_humidity;BME280_pressure;Samples;Min_cycle;Max_cycle;Signal;HPM_P1;HPM_P2
2023/08/06 00:00:15;;;;;;;8.45;7.60;;;;;;;;;;4926245;28;99135;-72
2023/08/06 00:02:43;;;;;;;10.65;7.35;;;;;;;;;;4925895;28;98957;-72
2023/08/06 00:05:09;;;;;;;13.52;7.75;;;;;;;;;;4926289;28;99832;-73
2023/08/06 00:07:36;;;;;;;8.32;7.53;;;;;;;;;;4926685;28;100373;-73
2023/08/06 00:10:02;;;;;;;12.40;7.88;;;;;;;;;;4928076;28;98888;-71
2023/08/06 00:12:29;;;;;;;12.02;8.35;;;;;;;;;;4926060;28;99196;-72
2023/08/06 00:14:55;;;;;;;8.90;7.20;;;;;;;;;;4926833;28;98909;-72
2023/08/06 00:17:22;;;;;;;11.82;8.05;;;;;;;;;;4929322;28;99229;-73
2023/08/06 00:19:48;;;;;;;8.38;7.57;;;;;;;;;;4926273;28;98905;-72
2023/08/06 00:22:15;;;;;;;13.23;8.00;;;;;;;;;;4926086;28;99063;-71
2023/08/06 00:24:41;;;;;;;7.82;7.07;;;;;;;;;;4925918;28;99415;-72
2023/08/06 00:27:08;;;;;;;8.20;7.40;;;;;;;;;;4910514;28;100025;-73
2023/08/06 00:29:34;;;;;;;10.88;7.32;;;;;;;;;;4909259;28;99893;-71
2023/08/06 00:32:01;;;;;;;11.27;7.35;;;;;;;;;;4911433;28;99504;-72
2023/08/06 00:34:27;;;;;;;10.10;6.50;;;;;;;;;;4910202;28;99323;-73
2023/08/06 00:36:54;;;;;;;8.40;7.40;;;;;;;;;;4910078;28;99241;-73
2023/08/06 00:39:20;;;;;;;9.50;7.63;;;;;;;;;;4916595;28;99329;-71
2023/08/06 00:41:46;;;;;;;19.50;7.70;;;;;;;;;;4929402;28;99256;-72
2023/08/06 00:44:13;;;;;;;6.82;6.15;;;;;;;;;;4930263;28;99270;-72
2023/08/06 00:46:39;;;;;;;8.77;6.72;;;;;;;;;;4929483;28;99153;-72
2023/08/06 00:49:06;;;;;;;7.32;6.63;;;;;;;;;;4928823;28;98950;-72
2023/08/06 00:51:34;;;;;;;10.52;7.25;;;;;;;;;;4929845;28;99673;-72
2023/08/06 00:54:02;;;;;;;7.13;6.43;;;;;;;;;;4929817;28;98810;-72
2023/08/06 00:56:29;;;;;;;7.63;6.85;;;;;;;;;;4919815;28;99079;-72
2023/08/06 00:58:55;;;;;;;10.35;6.88;;;;;;;;;;4930384;28;98570;-73
2023/08/06 01:01:22;;;;;;;10.55;7.03;;;;;;;;;;4932114;28;98906;-72
2023/08/06 01:03:48;;;;;;;10.20;6.85;;;;;;;;;;4929405;28;99498;-73
2023/08/06 01:06:19;;;;;;;10.07;6.70;;;;;;;;;;4927414;28;101010;-72
2023/08/06 01:08:54;;;;;;;8.43;7.53;;;;;;;;;;4927210;28;101924;-71
2023/08/06 01:11:28;;;;;;;8.20;7.40;;;;;;;;;;4930072;28;98964;-73
2023/08/06 01:13:58;;;;;;;8.30;7.47;;;;;;;;;;4929722;28;99077;-71
2023/08/06 01:16:24;;;;;;;8.68;7.30;;;;;;;;;;4928228;28;99066;-73
2023/08/06 01:18:51;;;;;;;8.68;7.80;;;;;;;;;;4927511;28;99819;-72
2023/08/06 01:21:18;;;;;;;10.52;7.78;;;;;;;;;;4927568;28;101357;-72
2023/08/06 01:23:45;;;;;;;10.57;7.78;;;;;;;;;;4931112;28;99274;-73
2023/08/06 01:26:30;;;;;;;12.02;7.65;;;;;;;;;;4929204;28;98933;-72
2023/08/06 01:29:08;;;;;;;11.48;8.50;;;;;;;;;;4929777;28;98697;-71
2023/08/06 01:31:38;;;;;;;10.75;7.70;;;;;;;;;;4927141;28;99896;-71
2023/08/06 01:34:07;;;;;;;8.45;7.68;;;;;;;;;;4929468;28;100155;-73
2023/08/06 01:36:33;;;;;;;11.57;8.18;;;;;;;;;;4927305;28;100008;-72
2023/08/06 01:39:00;;;;;;;8.57;7.63;;;;;;;;;;4929758;28;99961;-72
2023/08/06 01:41:26;;;;;;;9.48;8.48;;;;;;;;;;4928534;28;99284;-72
2023/08/06 01:43:53;;;;;;;12.73;8.63;;;;;;;;;;4929015;28;98739;-72
2023/08/06 01:46:19;;;;;;;10.45;8.77;;;;;;;;;;4932170;28;99264;-71
2023/08/06 01:48:46;;;;;;;16.75;9.18;;;;;;;;;;4927924;28;99000;-72
2023/08/06 01:51:12;;;;;;;10.52;8.77;;;;;;;;;;4927920;28;99211;-72
2023/08/06 01:53:39;;;;;;;11.95;8.45;;;;;;;;;;4928743;28;98741;-72
2023/08/06 01:56:05;;;;;;;15.25;8.73;;;;;;;;;;4928676;28;99357;-72
2023/08/06 01:58:32;;;;;;;12.32;9.10;;;;;;;;;;4926570;28;101787;-72
2023/08/06 02:00:58;;;;;;;12.75;9.35;;;;;;;;;;4927443;28;100948;-72
2023/08/06 02:03:25;;;;;;;11.80;9.77;;;;;;;;;;4928660;28;98762;-72
2023/08/06 02:05:51;;;;;;;13.43;10.23;;;;;;;;;;4926703;28;101853;-71
2023/08/06 02:08:21;;;;;;;10.60;9.52;;;;;;;;;;4931236;28;99477;-72
2023/08/06 02:10:47;;;;;;;10.75;9.35;;;;;;;;;;4929219;28;99719;-72
2023/08/06 02:13:14;;;;;;;10.90;9.10;;;;;;;;;;4928600;28;98761;-73
2023/08/06 02:15:44;;;;;;;13.30;9.32;;;;;;;;;;4927481;28;98610;-73
2023/08/06 02:18:10;;;;;;;22.10;9.70;;;;;;;;;;4928454;28;99251;-73
2023/08/06 02:20:37;;;;;;;12.50;10.40;;;;;;;;;;4926834;28;99404;-71
2023/08/06 02:23:03;;;;;;;15.05;10.95;;;;;;;;;;4928374;28;99775;-71
2023/08/06 02:25:30;;;;;;;17.60;10.88;;;;;;;;;;4928340;28;99118;-70
2023/08/06 02:27:58;;;;;;;13.85;9.95;;;;;;;;;;4930917;28;99919;-71
2023/08/06 02:30:24;;;;;;;12.73;10.02;;;;;;;;;;4928430;28;99135;-71
2023/08/06 02:32:51;;;;;;;19.25;11.48;;;;;;;;;;4926343;28;101114;-71
2023/08/06 02:35:17;;;;;;;14.95;10.88;;;;;;;;;;4926456;28;99466;-72
2023/08/06 02:37:45;;;;;;;15.32;10.55;;;;;;;;;;4929420;28;98512;-71
2023/08/06 02:40:11;;;;;;;17.95;10.93;;;;;;;;;;4927748;28;98992;-71
2023/08/06 02:42:38;;;;;;;16.15;10.57;;;;;;;;;;4928945;28;99055;-71
2023/08/06 02:45:04;;;;;;;17.08;10.77;;;;;;;;;;4928369;28;99937;-71
2023/08/06 02:47:31;;;;;;;15.55;10.20;;;;;;;;;;4928462;28;102348;-72
2023/08/06 02:49:58;;;;;;;12.73;10.90;;;;;;;;;;4930723;28;101316;-72
2023/08/06 02:52:25;;;;;;;14.80;10.00;;;;;;;;;;4927050;28;102141;-71
2023/08/06 02:54:52;;;;;;;12.60;10.07;;;;;;;;;;4925809;28;101131;-72
2023/08/06 02:57:20;;;;;;;21.52;10.52;;;;;;;;;;4909321;28;99332;-71
2023/08/06 02:59:49;;;;;;;12.93;10.80;;;;;;;;;;4907329;28;99120;-72
2023/08/06 03:02:19;;;;;;;19.95;10.68;;;;;;;;;;4907942;28;98814;-72
2023/08/06 03:04:55;;;;;;;15.05;9.55;;;;;;;;;;4906804;28;101754;-71
2023/08/06 03:07:25;;;;;;;13.77;10.32;;;;;;;;;;4907424;28;99021;-71
2023/08/06 03:09:56;;;;;;;13.80;9.38;;;;;;;;;;4909401;28;101122;-72
2023/08/06 03:12:24;;;;;;;12.88;9.20;;;;;;;;;;4929817;28;99287;-72
2023/08/06 03:14:50;;;;;;;10.00;8.75;;;;;;;;;;4926720;28;100445;-72
2023/08/06 03:17:17;;;;;;;11.20;9.10;;;;;;;;;;4927232;28;100259;-72
2023/08/06 03:19:44;;;;;;;12.57;8.25;;;;;;;;;;4926417;28;98824;-71
2023/08/06 03:22:11;;;;;;;20.50;9.02;;;;;;;;;;4925187;28;100942;-72
2023/08/06 03:24:38;;;;;;;8.85;7.95;;;;;;;;;;4926342;28;101202;-71
2023/08/06 03:27:05;;;;;;;11.32;7.90;;;;;;;;;;4926621;28;99130;-71
2023/08/06 03:29:31;;;;;;;9.10;7.85;;;;;;;;;;4925323;28;98752;-71
2023/08/06 03:32:00;;;;;;;9.40;7.20;;;;;;;;;;4926515;28;99286;-71
2023/08/06 03:34:27;;;;;;;7.60;6.82;;;;;;;;;;4928849;28;100048;-71
2023/08/06 03:36:53;;;;;;;10.35;7.13;;;;;;;;;;4925573;28;102133;-71
2023/08/06 03:39:20;;;;;;;11.05;7.13;;;;;;;;;;4926412;28;101650;-71
2023/08/06 03:41:46;;;;;;;8.48;6.40;;;;;;;;;;4911664;28;100931;-71
2023/08/06 03:44:14;;;;;;;8.20;6.47;;;;;;;;;;4905988;28;102014;-71
2023/08/06 03:46:41;;;;;;;6.47;5.85;;;;;;;;;;4912374;28;100905;-71
2023/08/06 03:49:10;;;;;;;11.63;7.82;;;;;;;;;;4927160;28;99677;-72
2023/08/06 03:51:36;;;;;;;20.45;7.97;;;;;;;;;;4927099;28;98684;-73
2023/08/06 03:54:03;;;;;;;14.98;8.23;;;;;;;;;;4925446;28;100742;-72
2023/08/06 03:56:30;;;;;;;11.88;8.48;;;;;;;;;;4930350;28;98917;-72
2023/08/06 03:58:56;;;;;;;15.40;9.63;;;;;;;;;;4925792;28;99368;-72
2023/08/06 04:01:23;;;;;;;14.23;10.18;;;;;;;;;;4925149;28;100024;-72
2023/08/06 04:03:51;;;;;;;17.63;11.73;;;;;;;;;;4926485;28;101254;-72
2023/08/06 04:06:18;;;;;;;18.63;11.80;;;;;;;;;;4929474;28;98982;-72
2023/08/06 04:08:44;;;;;;;18.90;12.48;;;;;;;;;;4930670;28;98776;-72
2023/08/06 04:11:12;;;;;;;21.85;13.07;;;;;;;;;;4929487;28;99317;-72
2023/08/06 04:13:44;;;;;;;22.70;13.90;;;;;;;;;;4930774;28;99005;-72
2023/08/06 04:16:10;;;;;;;25.80;14.20;;;;;;;;;;4934479;28;98948;-72
2023/08/06 04:18:37;;;;;;;29.95;14.88;;;;;;;;;;4928181;28;101975;-72
2023/08/06 04:21:03;;;;;;;24.45;15.02;;;;;;;;;;4930147;28;99033;-72
2023/08/06 04:23:30;;;;;;;27.40;14.82;;;;;;;;;;4929502;28;100134;-71
2023/08/06 04:26:01;;;;;;;38.03;16.30;;;;;;;;;;4928134;28;102007;-71
2023/08/06 04:28:31;;;;;;;24.92;16.00;;;;;;;;;;4928581;28;101667;-72
2023/08/06 04:30:58;;;;;;;31.13;16.70;;;;;;;;;;4928255;28;101514;-72
2023/08/06 04:33:26;;;;;;;27.13;16.48;;;;;;;;;;4928048;28;101743;-73
2023/08/06 04:35:55;;;;;;;27.50;15.55;;;;;;;;;;4928716;28;99962;-71
2023/08/06 04:38:25;;;;;;;28.25;16.65;;;;;;;;;;4928656;28;99397;-71
2023/08/06 04:40:52;;;;;;;30.15;17.17;;;;;;;;;;4922390;28;102003;-71
2023/08/06 04:43:19;;;;;;;25.05;16.85;;;;;;;;;;4928181;28;99379;-72
2023/08/06 04:45:47;;;;;;;27.42;16.20;;;;;;;;;;4929011;28;98928;-71
2023/08/06 04:48:13;;;;;;;22.35;15.40;;;;;;;;;;4928623;28;99267;-71
2023/08/06 04:50:43;;;;;;;25.27;16.33;;;;;;;;;;4929535;28;100228;-71
2023/08/06 04:53:10;;;;;;;23.67;15.88;;;;;;;;;;4929923;28;98945;-72
2023/08/06 04:55:36;;;;;;;21.25;15.85;;;;;;;;;;4928676;28;98989;-71
2023/08/06 04:58:03;;;;;;;29.13;16.52;;;;;;;;;;4928550;28;100812;-71
2023/08/06 05:00:30;;;;;;;20.75;16.15;;;;;;;;;;4931740;28;99091;-71
2023/08/06 05:02:56;;;;;;;23.73;16.55;;;;;;;;;;4929536;28;100133;-71
2023/08/06 05:05:22;;;;;;;27.65;16.55;;;;;;;;;;4929860;28;99116;-71
2023/08/06 05:07:49;;;;;;;30.70;16.92;;;;;;;;;;4928951;28;98947;-71
2023/08/06 05:10:16;;;;;;;24.42;17.98;;;;;;;;;;4929545;28;99397;-71
2023/08/06 05:12:42;;;;;;;24.92;18.08;;;;;;;;;;4929312;28;99278;-71
2023/08/06 05:15:09;;;;;;;26.05;17.55;;;;;;;;;;4928236;28;100702;-72
2023/08/06 05:17:35;;;;;;;29.80;19.73;;;;;;;;;;4929452;28;100196;-72
2023/08/06 05:20:02;;;;;;;27.55;17.95;;;;;;;;;;4929207;28;100575;-72
2023/08/06 05:22:29;;;;;;;23.20;16.92;;;;;;;;;;4931613;28;100159;-72
2023/08/06 05:24:55;;;;;;;27.55;17.88;;;;;;;;;;4929297;28;99871;-73
2023/08/06 05:27:21;;;;;;;29.23;16.70;;;;;;;;;;4928913;28;100046;-72
2023/08/06 05:29:48;;;;;;;25.98;18.50;;;;;;;;;;4928747;28;99760;-71
2023/08/06 05:32:14;;;;;;;26.65;17.95;;;;;;;;;;4928971;28;99887;-72
2023/08/06 05:34:41;;;;;;;23.98;17.63;;;;;;;;;;4928911;28;99905;-71
2023/08/06 05:37:09;;;;;;;20.83;15.18;;;;;;;;;;4928351;28;101522;-72
2023/08/06 05:39:35;;;;;;;27.23;17.67;;;;;;;;;;4929513;28;99472;-71
2023/08/06 05:42:02;;;;;;;24.63;17.20;;;;;;;;;;4929638;28;99914;-72
2023/08/06 05:44:29;;;;;;;29.73;17.83;;;;;;;;;;4931889;28;99366;-71
2023/08/06 05:46:55;;;;;;;26.00;17.08;;;;;;;;;;4928820;28;99048;-72
2023/08/06 05:49:22;;;;;;;23.70;16.77;;;;;;;;;;4928738;28;99722;-72
2023/08/06 05:51:48;;;;;;;21.50;16.67;;;;;;;;;;4927951;28;98973;-71
2023/08/06 05:54:15;;;;;;;21.45;15.70;;;;;;;;;;4929340;28;98920;-71
2023/08/06 05:56:41;;;;;;;28.80;17.20;;;;;;;;;;4928180;28;100466;-72
2023/08/06 05:59:10;;;;;;;24.10;16.85;;;;;;;;;;4928789;28;99822;-71
2023/08/06 06:01:37;;;;;;;23.70;17.45;;;;;;;;;;4928091;28;100229;-71
2023/08/06 06:04:03;;;;;;;25.77;17.20;;;;;;;;;;4927704;28;100275;-70
2023/08/06 06:06:29;;;;;;;24.63;17.13;;;;;;;;;;4931505;28;98941;-71
2023/08/06 06:08:56;;;;;;;24.15;16.45;;;;;;;;;;4929292;28;99289;-70
2023/08/06 06:11:22;;;;;;;28.15;17.35;;;;;;;;;;4928243;28;99941;-70
2023/08/06 06:13:50;;;;;;;25.77;17.58;;;;;;;;;;4929139;28;99238;-72
2023/08/06 06:16:17;;;;;;;27.27;17.45;;;;;;;;;;4928447;28;99594;-70
2023/08/06 06:18:43;;;;;;;24.98;17.13;;;;;;;;;;4928492;28;98974;-71
2023/08/06 06:21:10;;;;;;;19.50;15.57;;;;;;;;;;4928407;28;98531;-71
2023/08/06 06:23:36;;;;;;;34.00;16.63;;;;;;;;;;4928473;28;100406;-72
2023/08/06 06:26:03;;;;;;;18.85;15.63;;;;;;;;;;4930027;28;99742;-71
2023/08/06 06:28:29;;;;;;;18.25;15.25;;;;;;;;;;4927714;28;100428;-71
2023/08/06 06:31:01;;;;;;;29.13;16.17;;;;;;;;;;4928394;28;99932;-71
2023/08/06 06:33:28;;;;;;;;;;;;;;;;;;4927342;28;99831;-71
2023/08/06 06:35:54;;;;;;;17.55;13.98;;;;;;;;;;4927583;28;117704;-71
2023/08/06 06:38:21;;;;;;;21.25;15.15;;;;;;;;;;4928166;28;99993;-72
2023/08/06 06:40:54;;;;;;;22.00;14.75;;;;;;;;;;4927599;28;99239;-71
2023/08/06 06:43:20;;;;;;;23.48;15.90;;;;;;;;;;4928805;28;100000;-71
2023/08/06 06:45:47;;;;;;;22.33;14.68;;;;;;;;;;4927515;28;99170;-71
2023/08/06 06:48:13;;;;;;;17.38;14.45;;;;;;;;;;4922016;28;99946;-71
2023/08/06 06:50:40;;;;;;;20.50;14.88;;;;;;;;;;4907686;28;100191;-72
2023/08/06 06:53:06;;;;;;;17.25;14.48;;;;;;;;;;4917243;28;100863;-71
2023/08/06 06:55:32;;;;;;;18.67;14.95;;;;;;;;;;4909698;28;99279;-72
2023/08/06 06:57:59;;;;;;;22.27;14.82;;;;;;;;;;4924075;28;98459;-72
2023/08/06 07:00:25;;;;;;;17.42;14.55;;;;;;;;;;4925986;28;100170;-71
2023/08/06 07:02:52;;;;;;;18.83;15.48;;;;;;;;;;4926231;28;99593;-72
2023/08/06 07:05:19;;;;;;;16.83;14.25;;;;;;;;;;4927603;28;98913;-72
2023/08/06 07:07:45;;;;;;;16.00;14.13;;;;;;;;;;4926946;28;100089;-70
2023/08/06 07:10:11;;;;;;;17.05;14.30;;;;;;;;;;4931480;28;99404;-74
2023/08/06 07:12:40;;;;;;;17.33;14.50;;;;;;;;;;4923277;28;99857;-72
2023/08/06 07:15:07;;;;;;;18.13;15.27;;;;;;;;;;4910209;28;100965;-70
2023/08/06 07:17:33;;;;;;;18.17;14.82;;;;;;;;;;4917313;28;99725;-71
2023/08/06 07:20:00;;;;;;;21.13;15.32;;;;;;;;;;4915135;28;100039;-72
2023/08/06 07:22:26;;;;;;;17.15;14.05;;;;;;;;;;4911601;28;100011;-72
2023/08/06 07:24:52;;;;;;;21.02;14.18;;;;;;;;;;4916662;28;98853;-71
2023/08/06 07:27:19;;;;;;;15.20;13.65;;;;;;;;;;4916061;28;100244;-71
2023/08/06 07:29:45;;;;;;;23.15;13.75;;;;;;;;;;4915549;28;100251;-73
2023/08/06 07:32:12;;;;;;;15.10;13.45;;;;;;;;;;4919500;28;102788;-69
2023/08/06 07:34:38;;;;;;;15.77;13.88;;;;;;;;;;4917963;28;99771;-71
2023/08/06 07:37:05;;;;;;;15.55;13.63;;;;;;;;;;4918129;28;99146;-73
2023/08/06 07:39:32;;;;;;;15.93;12.63;;;;;;;;;;4919247;28;100247;-70
2023/08/06 07:41:58;;;;;;;14.73;13.07;;;;;;;;;;4921908;28;100609;-70
2023/08/06 07:44:25;;;;;;;17.33;13.57;;;;;;;;;;4926450;28;100401;-71
2023/08/06 07:46:51;;;;;;;17.13;12.48;;;;;;;;;;4926937;28;100351;-72
2023/08/06 07:49:18;;;;;;;39.28;26.02;;;;;;;;;;4923530;28;99673;-72
2023/08/06 07:51:44;;;;;;;17.63;14.00;;;;;;;;;;4932593;28;100248;-72
2023/08/06 07:54:10;;;;;;;12.85;11.65;;;;;;;;;;4936880;28;99920;-72
2023/08/06 07:56:37;;;;;;;14.25;12.75;;;;;;;;;;4933643;28;99047;-72
2023/08/06 07:59:03;;;;;;;14.82;13.07;;;;;;;;;;4933938;28;99829;-72
2023/08/06 08:01:30;;;;;;;15.38;13.02;;;;;;;;;;4934506;28;100217;-71
2023/08/06 08:03:56;;;;;;;14.93;13.30;;;;;;;;;;4932161;28;99380;-71
2023/08/06 08:06:23;;;;;;;16.40;12.98;;;;;;;;;;4932992;28;100764;-72
2023/08/06 08:08:49;;;;;;;15.55;12.30;;;;;;;;;;4933456;28;100198;-71
2023/08/06 08:11:16;;;;;;;13.30;11.20;;;;;;;;;;4932778;28;99965;-73
2023/08/06 08:13:42;;;;;;;13.05;9.77;;;;;;;;;;4931882;28;99124;-71
2023/08/06 08:16:08;;;;;;;12.85;11.40;;;;;;;;;;4917859;28;100497;-71
2023/08/06 08:18:35;;;;;;;15.85;10.20;;;;;;;;;;4919698;28;100445;-71
2023/08/06 08:21:01;;;;;;;15.05;10.45;;;;;;;;;;4933291;28;99641;-72
2023/08/06 08:23:28;;;;;;;12.57;11.05;;;;;;;;;;4932817;28;99861;-71
2023/08/06 08:25:55;;;;;;;13.32;10.80;;;;;;;;;;4932032;28;99210;-72
2023/08/06 08:28:21;;;;;;;12.57;11.27;;;;;;;;;;4931353;28;100907;-72
2023/08/06 08:30:47;;;;;;;12.38;10.45;;;;;;;;;;4931960;28;99195;-72
2023/08/06 08:33:14;;;;;;;16.17;11.18;;;;;;;;;;4931665;28;99118;-72
2023/08/06 08:35:40;;;;;;;14.85;9.98;;;;;;;;;;4935611;28;98483;-72
2023/08/06 08:38:07;;;;;;;6.57;5.95;;;;;;;;;;4932475;28;100013;-71
2023/08/06 08:40:36;;;;;;;4.13;3.83;;;;;;;;;;4931966;28;100197;-71
2023/08/06 08:43:02;;;;;;;3.25;3.05;;;;;;;;;;4933459;28;100035;-71
2023/08/06 08:45:29;;;;;;;3.47;2.78;;;;;;;;;;4932766;28;99880;-71
2023/08/06 08:47:56;;;;;;;2.00;1.90;;;;;;;;;;4933277;28;99620;-71
2023/08/06 08:50:22;;;;;;;2.13;2.03;;;;;;;;;;4930508;28;99950;-71
2023/08/06 08:52:50;;;;;;;1.42;1.33;;;;;;;;;;4928178;28;99959;-71
2023/08/06 08:55:17;;;;;;;1.88;1.70;;;;;;;;;;4922699;28;100400;-72
2023/08/06 08:57:43;;;;;;;8.80;2.25;;;;;;;;;;4925361;28;99194;-69
2023/08/06 09:00:10;;;;;;;1.85;1.75;;;;;;;;;;4916387;28;100338;-71
2023/08/06 09:02:37;;;;;;;10.10;6.07;;;;;;;;;;4921540;28;100225;-71
2023/08/06 09:05:04;;;;;;;9.00;7.25;;;;;;;;;;4919962;28;99949;-71
2023/08/06 09:07:33;;;;;;;2.35;1.90;;;;;;;;;;4916936;28;99824;-71
2023/08/06 09:10:01;;;;;;;1.95;1.85;;;;;;;;;;4921905;28;99883;-70
2023/08/06 09:12:27;;;;;;;1.67;1.58;;;;;;;;;;4920727;28;99139;-70
2023/08/06 09:14:54;;;;;;;2.00;1.90;;;;;;;;;;4913763;28;100357;-70
2023/08/06 09:17:20;;;;;;;1.85;1.75;;;;;;;;;;4916625;28;100067;-70
2023/08/06 09:19:48;;;;;;;2.00;1.90;;;;;;;;;;4922544;28;100840;-72
2023/08/06 09:22:15;;;;;;;4.75;2.08;;;;;;;;;;4920221;28;99257;-71
2023/08/06 09:24:41;;;;;;;8.90;2.17;;;;;;;;;;4919534;28;99407;-71
2023/08/06 09:27:14;;;;;;;3.08;2.22;;;;;;;;;;4922393;28;100181;-70
2023/08/06 09:29:42;;;;;;;9.88;2.97;;;;;;;;;;4916572;28;100744;-70
2023/08/06 09:32:08;;;;;;;2.58;2.30;;;;;;;;;;4918865;28;100078;-71
2023/08/06 09:34:38;;;;;;;3.15;2.53;;;;;;;;;;4915731;28;99086;-69
2023/08/06 09:37:04;;;;;;;2.83;2.65;;;;;;;;;;4916645;28;100489;-70
2023/08/06 09:39:31;;;;;;;2.55;2.25;;;;;;;;;;4916435;28;100678;-69
2023/08/06 09:41:59;;;;;;;2.85;2.63;;;;;;;;;;4922138;28;100061;-71
2023/08/06 09:44:27;;;;;;;2.97;2.78;;;;;;;;;;4920064;28;100154;-70
2023/08/06 09:46:54;;;;;;;4.20;2.47;;;;;;;;;;4919570;28;100175;-70
2023/08/06 09:49:22;;;;;;;3.13;2.95;;;;;;;;;;4917796;28;99098;-71
2023/08/06 09:51:51;;;;;;;4.38;3.47;;;;;;;;;;4918104;28;99961;-72
2023/08/06 09:54:19;;;;;;;3.78;3.58;;;;;;;;;;4916795;28;99921;-71
2023/08/06 09:56:56;;;;;;;2.72;2.53;;;;;;;;;;4920277;28;100071;-70
2023/08/06 09:59:23;;;;;;;4.50;3.58;;;;;;;;;;4922433;28;99925;-71
2023/08/06 10:01:51;;;;;;;3.78;3.47;;;;;;;;;;4914124;28;100651;-72
2023/08/06 10:04:19;;;;;;;4.60;3.75;;;;;;;;;;4922075;28;100364;-70
2023/08/06 10:06:50;;;;;;;4.30;3.38;;;;;;;;;;4917134;28;101180;-71
2023/08/06 10:09:18;;;;;;;3.83;3.28;;;;;;;;;;4918255;28;99942;-70
2023/08/06 10:11:49;;;;;;;4.32;3.03;;;;;;;;;;4918645;28;99121;-70
2023/08/06 10:14:21;;;;;;;4.40;4.00;;;;;;;;;;4919891;28;99913;-70
2023/08/06 10:16:48;;;;;;;4.10;3.80;;;;;;;;;;4919278;28;100449;-73
2023/08/06 10:19:16;;;;;;;4.20;3.90;;;;;;;;;;4918707;28;98810;-70
2023/08/06 10:22:02;;;;;;;7.20;4.38;;;;;;;;;;4915895;28;100419;-72
2023/08/06 10:24:44;;;;;;;5.00;4.05;;;;;;;;;;4911963;28;101718;-71
2023/08/06 10:27:11;;;;;;;6.13;4.07;;;;;;;;;;4916943;28;100421;-71
2023/08/06 10:29:38;;;;;;;7.57;4.90;;;;;;;;;;4916019;28;100186;-70
2023/08/06 10:32:05;;;;;;;3.60;3.38;;;;;;;;;;4919201;28;101245;-71
2023/08/06 10:34:52;;;;;;;4.32;3.42;;;;;;;;;;4917777;28;99535;-71
2023/08/06 10:37:19;;;;;;;3.92;3.58;;;;;;;;;;4917422;28;99939;-72
2023/08/06 10:39:51;;;;;;;4.40;3.92;;;;;;;;;;4921129;28;100139;-70
2023/08/06 10:42:18;;;;;;;;;;;;;;;;;;4915995;28;101692;-70
2023/08/06 10:45:03;;;;;;;4.50;4.03;;;;;;;;;;4915290;28;119434;-72
2023/08/06 10:47:29;;;;;;;8.48;4.20;;;;;;;;;;4924799;28;99950;-72
2023/08/06 10:49:57;;;;;;;5.53;3.95;;;;;;;;;;4924176;28;99959;-70
2023/08/06 10:52:23;;;;;;;9.63;4.60;;;;;;;;;;4914351;28;99977;-70
2023/08/06 10:54:49;;;;;;;4.28;3.88;;;;;;;;;;4918695;28;100182;-70
2023/08/06 10:57:16;;;;;;;6.20;3.80;;;;;;;;;;4917365;28;100789;-70
2023/08/06 10:59:42;;;;;;;8.27;4.45;;;;;;;;;;4913129;28;100168;-70
2023/08/06 11:02:09;;;;;;;6.13;4.28;;;;;;;;;;4915518;28;99872;-70
2023/08/06 11:04:36;;;;;;;8.20;3.67;;;;;;;;;;4922222;28;99659;-70
2023/08/06 11:07:02;;;;;;;2.95;2.58;;;;;;;;;;4912799;28;101652;-70
2023/08/06 11:09:29;;;;;;;5.65;3.53;;;;;;;;;;4921436;28;99373;-71
2023/08/06 11:11:55;;;;;;;6.70;3.47;;;;;;;;;;4917447;28;99870;-71
2023/08/06 11:14:22;;;;;;;8.15;3.90;;;;;;;;;;4919707;28;99528;-70
2023/08/06 11:16:50;;;;;;;4.53;3.50;;;;;;;;;;4916002;28;99906;-71
2023/08/06 11:19:16;;;;;;;7.20;3.53;;;;;;;;;;4916243;28;100386;-72
2023/08/06 11:21:43;;;;;;;6.35;2.97;;;;;;;;;;4916845;28;101055;-71
2023/08/06 11:24:10;;;;;;;4.50;3.53;;;;;;;;;;4915911;28;99558;-71
2023/08/06 11:26:38;;;;;;;3.17;2.70;;;;;;;;;;4917380;28;99317;-70
2023/08/06 11:29:04;;;;;;;4.30;2.85;;;;;;;;;;4917434;28;98697;-71
2023/08/06 11:31:31;;;;;;;4.43;2.97;;;;;;;;;;4921313;28;100564;-70
2023/08/06 11:33:57;;;;;;;6.38;2.58;;;;;;;;;;4914879;28;100024;-71
2023/08/06 11:36:33;;;;;;;2.60;2.40;;;;;;;;;;4916007;28;99744;-71
2023/08/06 11:39:00;;;;;;;5.80;2.67;;;;;;;;;;4917269;28;100049;-71
2023/08/06 11:41:30;;;;;;;5.35;3.00;;;;;;;;;;4915042;28;100152;-71
2023/08/06 11:43:57;;;;;;;8.75;2.58;;;;;;;;;;4915558;28;99573;-71
2023/08/06 11:46:24;;;;;;;2.40;2.20;;;;;;;;;;4917295;28;100940;-71
2023/08/06 11:48:55;;;;;;;3.35;2.30;;;;;;;;;;4916377;28;100238;-72
2023/08/06 11:51:25;;;;;;;5.28;1.98;;;;;;;;;;4914161;28;100278;-71
2023/08/06 11:53:59;;;;;;;2.45;2.00;;;;;;;;;;4917776;28;100067;-71
2023/08/06 11:56:26;;;;;;;;;;;;;;;;;;4917530;28;99922;-71
2023/08/06 11:58:53;;;;;;;2.15;1.95;;;;;;;;;;4913522;28;120738;-71
2023/08/06 12:01:20;;;;;;;3.10;2.30;;;;;;;;;;4916474;28;100049;-72
2023/08/06 12:03:47;;;;;;;3.53;2.67;;;;;;;;;;4918658;28;99211;-71
2023/08/06 12:06:13;;;;;;;4.65;2.00;;;;;;;;;;4918080;28;98744;-71
2023/08/06 12:08:41;;;;;;;11.98;2.53;;;;;;;;;;4913997;28;101362;-71
2023/08/06 12:11:08;;;;;;;4.20;2.08;;;;;;;;;;4913358;28;100137;-71
2023/08/06 12:13:35;;;;;;;2.97;2.13;;;;;;;;;;4920638;28;100670;-72
2023/08/06 12:16:01;;;;;;;4.70;2.05;;;;;;;;;;4926688;28;100276;-72
2023/08/06 12:18:28;;;;;;;11.63;1.98;;;;;;;;;;4924733;28;99643;-71
2023/08/06 12:20:55;;;;;;;5.60;1.80;;;;;;;;;;4923465;28;100258;-71
2023/08/06 12:23:22;;;;;;;2.15;1.67;;;;;;;;;;4926874;28;99967;-72
2023/08/06 12:25:49;;;;;;;1.75;1.60;;;;;;;;;;4927027;28;101350;-71
2023/08/06 12:28:16;;;;;;;2.10;1.90;;;;;;;;;;4927573;28;99506;-71
2023/08/06 12:30:44;;;;;;;1.80;1.45;;;;;;;;;;4929619;28;100255;-72
2023/08/06 12:33:10;;;;;;;1.77;1.67;;;;;;;;;;4929252;28;99835;-71
2023/08/06 12:35:38;;;;;;;1.88;1.77;;;;;;;;;;4928209;28;100781;-72
2023/08/06 12:38:04;;;;;;;3.45;1.67;;;;;;;;;;4932725;28;98554;-71
2023/08/06 12:40:31;;;;;;;2.80;1.45;;;;;;;;;;4930593;28;99776;-72
2023/08/06 12:43:03;;;;;;;1.80;1.70;;;;;;;;;;4930648;28;99873;-71
2023/08/06 12:45:29;;;;;;;1.42;1.35;;;;;;;;;;4927967;28;99893;-71
2023/08/06 12:47:56;;;;;;;2.72;1.73;;;;;;;;;;4928451;28;100506;-72
2023/08/06 12:50:22;;;;;;;1.80;1.70;;;;;;;;;;4928100;28;101961;-72
2023/08/06 12:52:49;;;;;;;2.33;1.90;;;;;;;;;;4927011;28;99731;-71
2023/08/06 12:55:15;;;;;;;7.05;1.73;;;;;;;;;;4929702;28;101781;-71
2023/08/06 12:57:42;;;;;;;2.08;1.67;;;;;;;;;;4932040;28;99952;-72
2023/08/06 13:00:24;;;;;;;2.03;1.90;;;;;;;;;;4928348;28;101479;-73
2023/08/06 13:02:50;;;;;;;23.40;2.50;;;;;;;;;;4930025;28;99030;-73
2023/08/06 13:05:17;;;;;;;1.80;1.55;;;;;;;;;;4926046;28;99971;-71
2023/08/06 13:07:43;;;;;;;5.05;2.20;;;;;;;;;;4927850;28;100285;-72
2023/08/06 13:10:10;;;;;;;2.22;2.03;;;;;;;;;;4930005;28;100171;-71
2023/08/06 13:12:36;;;;;;;2.40;1.80;;;;;;;;;;4928879;28;99611;-72
2023/08/06 13:15:03;;;;;;;5.03;2.00;;;;;;;;;;4929310;28;99250;-72
2023/08/06 13:17:29;;;;;;;5.53;2.08;;;;;;;;;;4930133;28;100036;-72
2023/08/06 13:19:56;;;;;;;3.90;2.60;;;;;;;;;;4931462;28;99300;-72
2023/08/06 13:22:22;;;;;;;2.35;2.20;;;;;;;;;;4927698;28;99870;-72
2023/08/06 13:24:49;;;;;;;4.63;2.53;;;;;;;;;;4929388;28;99930;-72
2023/08/06 13:27:15;;;;;;;2.35;2.25;;;;;;;;;;4928748;28;100245;-71
2023/08/06 13:29:42;;;;;;;3.08;2.47;;;;;;;;;;4928571;28;100356;-71
2023/08/06 13:32:08;;;;;;;3.88;2.75;;;;;;;;;;4927288;28;100255;-72
2023/08/06 13:34:35;;;;;;;2.70;2.42;;;;;;;;;;4928009;28;100069;-72
2023/08/06 13:37:02;;;;;;;2.75;2.25;;;;;;;;;;4927714;28;100057;-71
2023/08/06 13:39:28;;;;;;;4.80;2.25;;;;;;;;;;4926482;28;100312;-71
2023/08/06 13:41:55;;;;;;;5.07;2.22;;;;;;;;;;4924060;28;99460;-73
2023/08/06 13:44:21;;;;;;;5.30;2.67;;;;;;;;;;4927768;28;100236;-72
2023/08/06 13:46:48;;;;;;;2.95;2.33;;;;;;;;;;4928386;28;99329;-71
2023/08/06 13:49:14;;;;;;;2.38;2.17;;;;;;;;;;4926383;28;100133;-73
2023/08/06 13:51:41;;;;;;;2.85;2.30;;;;;;;;;;4927478;28;100610;-72
2023/08/06 13:54:08;;;;;;;5.60;2.65;;;;;;;;;;4927605;28;100213;-72
2023/08/06 13:56:34;;;;;;;2.72;2.08;;;;;;;;;;4927960;28;99899;-73
2023/08/06 13:59:01;;;;;;;2.38;2.20;;;;;;;;;;4929267;28;99884;-72
2023/08/06 14:01:28;;;;;;;2.85;2.15;;;;;;;;;;4929202;28;99344;-72
2023/08/06 14:04:13;;;;;;;3.33;2.10;;;;;;;;;;4931276;28;98952;-72
2023/08/06 14:06:39;;;;;;;2.40;2.20;;;;;;;;;;4929378;28;99384;-73
2023/08/06 14:09:06;;;;;;;3.17;2.47;;;;;;;;;;4924776;28;100637;-72
2023/08/06 14:11:32;;;;;;;3.60;1.75;;;;;;;;;;4928492;28;100614;-72
2023/08/06 14:14:00;;;;;;;3.50;1.98;;;;;;;;;;4927217;28;100734;-72
2023/08/06 14:16:29;;;;;;;1.55;1.55;;;;;;;;;;4926725;28;98985;-72
2023/08/06 14:18:55;;;;;;;1.83;1.73;;;;;;;;;;4928973;28;99182;-72
2023/08/06 14:21:22;;;;;;;2.45;1.95;;;;;;;;;;4922949;28;100464;-73
2023/08/06 14:23:48;;;;;;;2.45;1.70;;;;;;;;;;4926654;28;100007;-72
2023/08/06 14:26:15;;;;;;;1.58;1.52;;;;;;;;;;4931467;28;100057;-72